sensor_id;sensor_type;location;lat;lon;timestamp;P1;durP1;ratioP1;P2;durP2;ratioP2
64915;SDS011;51427;-27.442;153.014;2023-02-01T00:02:01;3.00;;;2.72;;
64915;SDS011;51427;-27.442;153.014;2023-02-01T00:04:28;2.92;;;2.60;;
64915;SDS011;51427;-27.442;153.014;2023-02-01T00:06:54;2.92;;;2.72;;
64915;SDS011;51427;-27.442;153.014;2023-02-01T00:09:21;3.17;;;2.85;;
64915;SDS011;51427;-27.442;153.014;2023-02-01T00:11:47;3.47;;;2.72;;
64915;SDS011;51427;-27.442;153.014;2023-02-01T00:14:14;2.42;;;2.22;;
64915;SDS011;51427;-27.442;153.014;2023-02-01T00:16:40;3.00;;;2.80;;
64915;SDS011;51427;-27.442;153.014;2023-02-01T00:19:09;2.72;;;2.28;;
64915;SDS011;51427;-27.442;153.014;2023-02-01T00:21:36;2.92;;;2.63;;
64915;SDS011;51427;-27.442;153.014;2023-02-01T00:24:02;2.53;;;2.33;;
64915;SDS011;51427;-27.442;153.014;2023-02-01T00:28:59;2.97;;;2.75;;
64915;SDS011;51427;-27.442;153.014;2023-02-01T00:31:25;3.42;;;3.13;;
64915;SDS011;51427;-27.442;153.014;2023-02-01T00:33:52;4.25;;;2.90;;
64915;SDS011;51427;-27.442;153.014;2023-02-01T00:36:18;4.50;;;3.40;;
64915;SDS011;51427;-27.442;153.014;2023-02-01T00:38:45;3.28;;;2.97;;
64915;SDS011;51427;-27.442;153.014;2023-02-01T00:41:18;3.42;;;2.90;;
64915;SDS011;51427;-27.442;153.014;2023-02-01T00:43:45;3.55;;;3.25;;
64915;SDS011;51427;-27.442;153.014;2023-02-01T00:46:13;3.30;;;3.00;;
64915;SDS011;51427;-27.442;153.014;2023-02-01T00:48:40;3.67;;;2.90;;
64915;SDS011;51427;-27.442;153.014;2023-02-01T00:51:07;4.15;;;3.70;;
64915;SDS011;51427;-27.442;153.014;2023-02-01T00:53:35;4.20;;;3.50;;
64915;SDS011;51427;-27.442;153.014;2023-02-01T00:56:01;4.70;;;3.67;;
64915;SDS011;51427;-27.442;153.014;2023-02-01T00:58:28;3.83;;;3.20;;
64915;SDS011;51427;-27.442;153.014;2023-02-01T01:01:04;4.15;;;3.38;;
64915;SDS011;51427;-27.442;153.014;2023-02-01T01:03:32;3.35;;;3.05;;
64915;SDS011;51427;-27.442;153.014;2023-02-01T01:06:04;3.58;;;3.28;;
64915;SDS011;51427;-27.442;153.014;2023-02-01T01:08:31;6.45;;;4.65;;
64915;SDS011;51427;-27.442;153.014;2023-02-01T01:10:57;4.10;;;3.47;;
64915;SDS011;51427;-27.442;153.014;2023-02-01T01:13:24;5.13;;;3.70;;
64915;SDS011;51427;-27.442;153.014;2023-02-01T01:15:50;4.13;;;3.72;;
64915;SDS011;51427;-27.442;153.014;2023-02-01T01:18:17;6.25;;;4.90;;
64915;SDS011;51427;-27.442;153.014;2023-02-01T01:20:43;4.78;;;4.28;;
64915;SDS011;51427;-27.442;153.014;2023-02-01T01:23:10;5.13;;;3.70;;
64915;SDS011;51427;-27.442;153.014;2023-02-01T01:25:39;5.28;;;4.63;;
64915;SDS011;51427;-27.442;153.014;2023-02-01T01:28:06;4.68;;;4.18;;
64915;SDS011;51427;-27.442;153.014;2023-02-01T01:30:35;4.18;;;3.85;;
64915;SDS011;51427;-27.442;153.014;2023-02-01T01:33:02;5.93;;;4.45;;
64915;SDS011;51427;-27.442;153.014;2023-02-01T01:35:32;5.10;;;4.20;;
64915;SDS011;51427;-27.442;153.014;2023-02-01T01:37:59;5.60;;;4.47;;
64915;SDS011;51427;-27.442;153.014;2023-02-01T01:40:26;6.10;;;4.60;;
64915;SDS011;51427;-27.442;153.014;2023-02-01T01:42:53;5.70;;;4.80;;
64915;SDS011;51427;-27.442;153.014;2023-02-01T01:45:33;4.47;;;4.03;;
64915;SDS011;51427;-27.442;153.014;2023-02-01T01:50:27;5.32;;;4.50;;
64915;SDS011;51427;-27.442;153.014;2023-02-01T01:52:55;4.95;;;4.53;;
64915;SDS011;51427;-27.442;153.014;2023-02-01T01:55:24;5.50;;;4.88;;
64915;SDS011;51427;-27.442;153.014;2023-02-01T01:57:53;4.90;;;4.40;;
64915;SDS011;51427;-27.442;153.014;2023-02-01T02:00:21;5.22;;;4.63;;
64915;SDS011;51427;-27.442;153.014;2023-02-01T02:02:58;5.30;;;4.50;;
64915;SDS011;51427;-27.442;153.014;2023-02-01T02:05:25;5.43;;;4.90;;
64915;SDS011;51427;-27.442;153.014;2023-02-01T02:07:54;7.18;;;4.38;;
64915;SDS011;51427;-27.442;153.014;2023-02-01T02:10:23;5.97;;;4.65;;
64915;SDS011;51427;-27.442;153.014;2023-02-01T02:13:09;5.18;;;4.60;;
64915;SDS011;51427;-27.442;153.014;2023-02-01T02:15:37;5.28;;;4.78;;
64915;SDS011;51427;-27.442;153.014;2023-02-01T02:18:06;5.53;;;5.03;;
64915;SDS011;51427;-27.442;153.014;2023-02-01T02:36:15;6.05;;;5.25;;
64915;SDS011;51427;-27.442;153.014;2023-02-01T02:38:49;6.20;;;5.15;;
64915;SDS011;51427;-27.442;153.014;2023-02-01T02:44:08;5.82;;;5.03;;
64915;SDS011;51427;-27.442;153.014;2023-02-01T02:46:53;5.30;;;4.80;;
64915;SDS011;51427;-27.442;153.014;2023-02-01T02:52:54;5.88;;;5.28;;
64915;SDS011;51427;-27.442;153.014;2023-02-01T02:55:41;5.68;;;5.13;;
64915;SDS011;51427;-27.442;153.014;2023-02-01T02:58:08;7.90;;;5.40;;
64915;SDS011;51427;-27.442;153.014;2023-02-01T03:00:54;6.93;;;4.80;;
64915;SDS011;51427;-27.442;153.014;2023-02-01T03:03:39;5.50;;;5.00;;
64915;SDS011;51427;-27.442;153.014;2023-02-01T03:06:26;5.40;;;4.90;;
64915;SDS011;51427;-27.442;153.014;2023-02-01T03:08:53;5.75;;;5.20;;
64915;SDS011;51427;-27.442;153.014;2023-02-01T03:11:23;6.90;;;5.53;;
64915;SDS011;51427;-27.442;153.014;2023-02-01T03:14:10;5.72;;;5.22;;
64915;SDS011;51427;-27.442;153.014;2023-02-01T03:16:43;5.70;;;5.20;;
64915;SDS011;51427;-27.442;153.014;2023-02-01T03:21:55;7.60;;;4.93;;
64915;SDS011;51427;-27.442;153.014;2023-02-01T03:24:24;6.10;;;5.03;;
64915;SDS011;51427;-27.442;153.014;2023-02-01T03:27:45;8.38;;;5.10;;
64915;SDS011;51427;-27.442;153.014;2023-02-01T03:32:11;10.38;;;4.93;;
64915;SDS011;51427;-27.442;153.014;2023-02-01T03:34:38;6.68;;;4.97;;
64915;SDS011;51427;-27.442;153.014;2023-02-01T03:37:06;7.65;;;5.00;;
64915;SDS011;51427;-27.442;153.014;2023-02-01T03:39:36;6.72;;;4.80;;
64915;SDS011;51427;-27.442;153.014;2023-02-01T03:42:15;8.73;;;5.00;;
64915;SDS011;51427;-27.442;153.014;2023-02-01T03:45:01;7.07;;;5.55;;
64915;SDS011;51427;-27.442;153.014;2023-02-01T03:47:30;6.03;;;4.55;;
64915;SDS011;51427;-27.442;153.014;2023-02-01T03:50:09;6.38;;;5.10;;
64915;SDS011;51427;-27.442;153.014;2023-02-01T03:52:40;7.15;;;5.15;;
64915;SDS011;51427;-27.442;153.014;2023-02-01T03:55:08;6.45;;;5.18;;
64915;SDS011;51427;-27.442;153.014;2023-02-01T03:57:38;6.95;;;5.25;;
64915;SDS011;51427;-27.442;153.014;2023-02-01T04:00:06;8.43;;;5.15;;
64915;SDS011;51427;-27.442;153.014;2023-02-01T04:02:33;6.75;;;5.00;;
64915;SDS011;51427;-27.442;153.014;2023-02-01T04:05:00;5.90;;;5.20;;
64915;SDS011;51427;-27.442;153.014;2023-02-01T04:07:26;8.60;;;5.43;;
64915;SDS011;51427;-27.442;153.014;2023-02-01T04:09:53;8.52;;;5.10;;
64915;SDS011;51427;-27.442;153.014;2023-02-01T04:12:19;10.80;;;5.45;;
64915;SDS011;51427;-27.442;153.014;2023-02-01T04:14:46;6.28;;;5.38;;
64915;SDS011;51427;-27.442;153.014;2023-02-01T04:17:12;6.38;;;5.20;;
64915;SDS011;51427;-27.442;153.014;2023-02-01T04:19:39;6.88;;;5.22;;
64915;SDS011;51427;-27.442;153.014;2023-02-01T04:22:05;7.68;;;4.80;;
64915;SDS011;51427;-27.442;153.014;2023-02-01T04:24:32;6.45;;;4.80;;
64915;SDS011;51427;-27.442;153.014;2023-02-01T04:26:58;7.65;;;5.47;;
64915;SDS011;51427;-27.442;153.014;2023-02-01T04:29:25;6.93;;;5.38;;
64915;SDS011;51427;-27.442;153.014;2023-02-01T04:31:51;8.63;;;5.63;;
64915;SDS011;51427;-27.442;153.014;2023-02-01T04:34:17;7.70;;;5.28;;
64915;SDS011;51427;-27.442;153.014;2023-02-01T04:36:44;14.43;;;6.32;;
64915;SDS011;51427;-27.442;153.014;2023-02-01T04:39:10;10.50;;;5.07;;
64915;SDS011;51427;-27.442;153.014;2023-02-01T04:41:37;10.68;;;5.72;;
64915;SDS011;51427;-27.442;153.014;2023-02-01T04:44:03;6.55;;;4.57;;
64915;SDS011;51427;-27.442;153.014;2023-02-01T04:46:30;8.15;;;4.93;;
64915;SDS011;51427;-27.442;153.014;2023-02-01T04:48:56;6.35;;;4.85;;
64915;SDS011;51427;-27.442;153.014;2023-02-01T04:51:23;7.28;;;4.97;;
64915;SDS011;51427;-27.442;153.014;2023-02-01T04:53:49;5.75;;;4.60;;
64915;SDS011;51427;-27.442;153.014;2023-02-01T04:56:16;6.72;;;4.57;;
64915;SDS011;51427;-27.442;153.014;2023-02-01T04:58:42;6.40;;;4.80;;
64915;SDS011;51427;-27.442;153.014;2023-02-01T05:01:09;6.82;;;5.28;;
64915;SDS011;51427;-27.442;153.014;2023-02-01T05:03:35;8.05;;;5.10;;
64915;SDS011;51427;-27.442;153.014;2023-02-01T05:06:02;8.52;;;5.43;;
64915;SDS011;51427;-27.442;153.014;2023-02-01T05:08:30;6.60;;;5.35;;
64915;SDS011;51427;-27.442;153.014;2023-02-01T05:10:57;8.43;;;5.35;;
64915;SDS011;51427;-27.442;153.014;2023-02-01T05:13:24;13.02;;;5.68;;
64915;SDS011;51427;-27.442;153.014;2023-02-01T05:16:09;12.13;;;5.07;;
64915;SDS011;51427;-27.442;153.014;2023-02-01T05:18:35;8.05;;;5.15;;
64915;SDS011;51427;-27.442;153.014;2023-02-01T05:21:02;6.97;;;5.00;;
64915;SDS011;51427;-27.442;153.014;2023-02-01T05:23:28;7.35;;;5.18;;
64915;SDS011;51427;-27.442;153.014;2023-02-01T05:26:01;8.20;;;5.22;;
64915;SDS011;51427;-27.442;153.014;2023-02-01T05:28:27;5.60;;;4.88;;
64915;SDS011;51427;-27.442;153.014;2023-02-01T05:30:54;6.88;;;4.78;;
64915;SDS011;51427;-27.442;153.014;2023-02-01T05:33:20;8.25;;;5.00;;
64915;SDS011;51427;-27.442;153.014;2023-02-01T05:35:47;6.63;;;4.78;;
64915;SDS011;51427;-27.442;153.014;2023-02-01T05:38:14;6.60;;;4.65;;
64915;SDS011;51427;-27.442;153.014;2023-02-01T05:40:40;6.57;;;5.05;;
64915;SDS011;51427;-27.442;153.014;2023-02-01T05:43:07;5.18;;;4.25;;
64915;SDS011;51427;-27.442;153.014;2023-02-01T05:45:33;6.15;;;4.50;;
64915;SDS011;51427;-27.442;153.014;2023-02-01T05:47:59;6.82;;;5.00;;
64915;SDS011;51427;-27.442;153.014;2023-02-01T05:50:26;8.82;;;5.30;;
64915;SDS011;51427;-27.442;153.014;2023-02-01T05:52:52;7.25;;;4.95;;
64915;SDS011;51427;-27.442;153.014;2023-02-01T05:55:19;7.07;;;4.72;;
64915;SDS011;51427;-27.442;153.014;2023-02-01T05:57:45;8.18;;;5.38;;
64915;SDS011;51427;-27.442;153.014;2023-02-01T06:00:12;7.43;;;5.47;;
64915;SDS011;51427;-27.442;153.014;2023-02-01T06:02:38;7.63;;;5.40;;
64915;SDS011;51427;-27.442;153.014;2023-02-01T06:05:06;7.20;;;4.93;;
64915;SDS011;51427;-27.442;153.014;2023-02-01T06:07:32;11.32;;;4.95;;
64915;SDS011;51427;-27.442;153.014;2023-02-01T06:09:59;6.07;;;4.85;;
64915;SDS011;51427;-27.442;153.014;2023-02-01T06:12:25;9.45;;;4.45;;
64915;SDS011;51427;-27.442;153.014;2023-02-01T06:14:53;8.20;;;4.65;;
64915;SDS011;51427;-27.442;153.014;2023-02-01T06:17:20;7.53;;;4.90;;
64915;SDS011;51427;-27.442;153.014;2023-02-01T06:19:46;9.38;;;4.47;;
64915;SDS011;51427;-27.442;153.014;2023-02-01T06:22:14;6.63;;;4.68;;
64915;SDS011;51427;-27.442;153.014;2023-02-01T06:24:40;8.48;;;5.07;;
64915;SDS011;51427;-27.442;153.014;2023-02-01T06:27:07;8.55;;;5.18;;
64915;SDS011;51427;-27.442;153.014;2023-02-01T06:29:35;6.95;;;5.25;;
64915;SDS011;51427;-27.442;153.014;2023-02-01T06:32:01;6.47;;;4.97;;
64915;SDS011;51427;-27.442;153.014;2023-02-01T06:34:28;6.57;;;4.97;;
64915;SDS011;51427;-27.442;153.014;2023-02-01T06:36:55;9.50;;;5.10;;
64915;SDS011;51427;-27.442;153.014;2023-02-01T06:39:21;8.43;;;5.55;;
64915;SDS011;51427;-27.442;153.014;2023-02-01T06:41:48;7.80;;;5.45;;
64915;SDS011;51427;-27.442;153.014;2023-02-01T06:44:15;7.30;;;5.30;;
64915;SDS011;51427;-27.442;153.014;2023-02-01T06:46:42;8.15;;;5.43;;
64915;SDS011;51427;-27.442;153.014;2023-02-01T06:49:08;8.98;;;5.53;;
64915;SDS011;51427;-27.442;153.014;2023-02-01T06:51:35;7.95;;;5.32;;
64915;SDS011;51427;-27.442;153.014;2023-02-01T06:54:01;8.20;;;5.60;;
64915;SDS011;51427;-27.442;153.014;2023-02-01T06:56:28;7.95;;;5.70;;
64915;SDS011;51427;-27.442;153.014;2023-02-01T06:58:56;7.93;;;6.22;;
64915;SDS011;51427;-27.442;153.014;2023-02-01T07:01:23;10.38;;;5.82;;
64915;SDS011;51427;-27.442;153.014;2023-02-01T07:03:50;9.95;;;6.30;;
64915;SDS011;51427;-27.442;153.014;2023-02-01T07:06:16;13.95;;;6.50;;
64915;SDS011;51427;-27.442;153.014;2023-02-01T07:08:43;10.30;;;5.80;;
64915;SDS011;51427;-27.442;153.014;2023-02-01T07:11:11;11.10;;;6.30;;
64915;SDS011;51427;-27.442;153.014;2023-02-01T07:13:38;13.70;;;6.70;;
64915;SDS011;51427;-27.442;153.014;2023-02-01T07:16:06;10.32;;;6.55;;
64915;SDS011;51427;-27.442;153.014;2023-02-01T07:18:32;10.23;;;5.93;;
64915;SDS011;51427;-27.442;153.014;2023-02-01T07:20:59;13.20;;;6.28;;
64915;SDS011;51427;-27.442;153.014;2023-02-01T07:23:26;9.85;;;5.90;;
64915;SDS011;51427;-27.442;153.014;2023-02-01T07:25:53;8.60;;;5.82;;
64915;SDS011;51427;-27.442;153.014;2023-02-01T07:28:20;7.00;;;5.57;;
64915;SDS011;51427;-27.442;153.014;2023-02-01T07:30:46;7.43;;;4.38;;
64915;SDS011;51427;-27.442;153.014;2023-02-01T07:33:22;6.85;;;5.68;;
64915;SDS011;51427;-27.442;153.014;2023-02-01T07:35:49;9.10;;;5.22;;
64915;SDS011;51427;-27.442;153.014;2023-02-01T07:38:16;8.65;;;5.55;;
64915;SDS011;51427;-27.442;153.014;2023-02-01T07:40:43;8.50;;;5.40;;
64915;SDS011;51427;-27.442;153.014;2023-02-01T07:43:09;9.05;;;5.60;;
64915;SDS011;51427;-27.442;153.014;2023-02-01T07:45:36;8.35;;;4.63;;
64915;SDS011;51427;-27.442;153.014;2023-02-01T07:48:03;9.90;;;5.22;;
64915;SDS011;51427;-27.442;153.014;2023-02-01T07:50:30;8.90;;;5.38;;
64915;SDS011;51427;-27.442;153.014;2023-02-01T07:52:58;8.25;;;5.57;;
64915;SDS011;51427;-27.442;153.014;2023-02-01T07:55:25;8.35;;;5.47;;
64915;SDS011;51427;-27.442;153.014;2023-02-01T07:57:51;8.63;;;5.10;;
64915;SDS011;51427;-27.442;153.014;2023-02-01T08:00:18;7.35;;;4.90;;
64915;SDS011;51427;-27.442;153.014;2023-02-01T08:03:03;7.13;;;5.03;;
64915;SDS011;51427;-27.442;153.014;2023-02-01T08:05:30;7.47;;;4.93;;
64915;SDS011;51427;-27.442;153.014;2023-02-01T08:07:56;9.27;;;5.20;;
64915;SDS011;51427;-27.442;153.014;2023-02-01T08:10:23;8.15;;;5.05;;
64915;SDS011;51427;-27.442;153.014;2023-02-01T08:12:49;7.90;;;4.75;;
64915;SDS011;51427;-27.442;153.014;2023-02-01T08:15:17;6.78;;;4.70;;
64915;SDS011;51427;-27.442;153.014;2023-02-01T08:17:50;7.38;;;5.53;;
64915;SDS011;51427;-27.442;153.014;2023-02-01T08:20:17;6.45;;;4.90;;
64915;SDS011;51427;-27.442;153.014;2023-02-01T08:22:44;9.07;;;5.05;;
64915;SDS011;51427;-27.442;153.014;2023-02-01T08:25:11;9.18;;;5.25;;
64915;SDS011;51427;-27.442;153.014;2023-02-01T08:27:37;10.57;;;5.40;;
64915;SDS011;51427;-27.442;153.014;2023-02-01T08:30:04;6.35;;;4.88;;
64915;SDS011;51427;-27.442;153.014;2023-02-01T08:32:32;8.00;;;4.63;;
64915;SDS011;51427;-27.442;153.014;2023-02-01T08:34:59;6.95;;;4.65;;
64915;SDS011;51427;-27.442;153.014;2023-02-01T08:37:25;5.90;;;4.75;;
64915;SDS011;51427;-27.442;153.014;2023-02-01T08:39:52;5.75;;;4.47;;
64915;SDS011;51427;-27.442;153.014;2023-02-01T08:42:18;6.25;;;4.57;;
64915;SDS011;51427;-27.442;153.014;2023-02-01T08:45:03;7.05;;;4.80;;
64915;SDS011;51427;-27.442;153.014;2023-02-01T08:47:30;5.82;;;4.47;;
64915;SDS011;51427;-27.442;153.014;2023-02-01T08:49:56;9.82;;;4.75;;
64915;SDS011;51427;-27.442;153.014;2023-02-01T08:54:49;6.78;;;4.45;;
64915;SDS011;51427;-27.442;153.014;2023-02-01T09:02:11;6.45;;;4.13;;
64915;SDS011;51427;-27.442;153.014;2023-02-01T09:04:38;7.57;;;4.40;;
64915;SDS011;51427;-27.442;153.014;2023-02-01T09:07:04;5.80;;;4.22;;
64915;SDS011;51427;-27.442;153.014;2023-02-01T09:11:57;9.77;;;4.45;;
64915;SDS011;51427;-27.442;153.014;2023-02-01T09:19:15;8.60;;;4.50;;
64915;SDS011;51427;-27.442;153.014;2023-02-01T09:24:08;9.05;;;4.50;;
64915;SDS011;51427;-27.442;153.014;2023-02-01T09:26:36;10.23;;;4.90;;
64915;SDS011;51427;-27.442;153.014;2023-02-01T09:29:02;11.48;;;5.40;;
64915;SDS011;51427;-27.442;153.014;2023-02-01T09:31:29;6.15;;;4.72;;
64915;SDS011;51427;-27.442;153.014;2023-02-01T09:33:56;8.65;;;4.85;;
64915;SDS011;51427;-27.442;153.014;2023-02-01T09:36:22;8.95;;;4.55;;
64915;SDS011;51427;-27.442;153.014;2023-02-01T09:38:49;9.90;;;4.85;;
64915;SDS011;51427;-27.442;153.014;2023-02-01T09:44:01;8.55;;;5.13;;
64915;SDS011;51427;-27.442;153.014;2023-02-01T09:46:30;7.45;;;4.63;;
64915;SDS011;51427;-27.442;153.014;2023-02-01T09:48:59;8.05;;;4.57;;
64915;SDS011;51427;-27.442;153.014;2023-02-01T09:51:30;7.85;;;4.50;;
64915;SDS011;51427;-27.442;153.014;2023-02-01T09:54:02;6.35;;;4.65;;
64915;SDS011;51427;-27.442;153.014;2023-02-01T09:56:41;11.13;;;5.05;;
64915;SDS011;51427;-27.442;153.014;2023-02-01T10:01:37;5.88;;;4.35;;
64915;SDS011;51427;-27.442;153.014;2023-02-01T10:04:09;5.65;;;4.18;;
64915;SDS011;51427;-27.442;153.014;2023-02-01T10:06:52;7.65;;;4.43;;
64915;SDS011;51427;-27.442;153.014;2023-02-01T10:12:14;7.57;;;4.32;;
64915;SDS011;51427;-27.442;153.014;2023-02-01T10:22:42;9.38;;;4.43;;
64915;SDS011;51427;-27.442;153.014;2023-02-01T10:27:54;6.18;;;3.70;;
64915;SDS011;51427;-27.442;153.014;2023-02-01T10:35:36;6.22;;;3.80;;
64915;SDS011;51427;-27.442;153.014;2023-02-01T10:38:04;5.15;;;4.05;;
64915;SDS011;51427;-27.442;153.014;2023-02-01T10:40:33;4.88;;;4.15;;
64915;SDS011;51427;-27.442;153.014;2023-02-01T10:43:00;7.18;;;4.07;;
64915;SDS011;51427;-27.442;153.014;2023-02-01T10:45:30;8.43;;;3.97;;
64915;SDS011;51427;-27.442;153.014;2023-02-01T10:47:59;7.80;;;3.63;;
64915;SDS011;51427;-27.442;153.014;2023-02-01T10:50:41;6.47;;;4.35;;
64915;SDS011;51427;-27.442;153.014;2023-02-01T10:53:15;6.50;;;3.90;;
64915;SDS011;51427;-27.442;153.014;2023-02-01T10:55:47;5.72;;;4.18;;
64915;SDS011;51427;-27.442;153.014;2023-02-01T10:58:18;4.88;;;4.05;;
64915;SDS011;51427;-27.442;153.014;2023-02-01T11:00:56;7.63;;;4.03;;
64915;SDS011;51427;-27.442;153.014;2023-02-01T11:03:42;4.80;;;3.92;;
64915;SDS011;51427;-27.442;153.014;2023-02-01T11:06:19;6.88;;;3.78;;
64915;SDS011;51427;-27.442;153.014;2023-02-01T11:08:52;8.63;;;4.05;;
64915;SDS011;51427;-27.442;153.014;2023-02-01T11:11:19;6.03;;;3.75;;
64915;SDS011;51427;-27.442;153.014;2023-02-01T11:13:51;4.75;;;3.67;;
64915;SDS011;51427;-27.442;153.014;2023-02-01T11:16:18;6.75;;;4.15;;
64915;SDS011;51427;-27.442;153.014;2023-02-01T11:18:44;7.65;;;4.32;;
64915;SDS011;51427;-27.442;153.014;2023-02-01T11:21:12;5.10;;;4.00;;
64915;SDS011;51427;-27.442;153.014;2023-02-01T11:23:43;6.10;;;4.15;;
64915;SDS011;51427;-27.442;153.014;2023-02-01T11:28:50;7.13;;;4.32;;
64915;SDS011;51427;-27.442;153.014;2023-02-01T11:31:18;5.63;;;3.80;;
64915;SDS011;51427;-27.442;153.014;2023-02-01T11:33:49;5.15;;;3.90;;
64915;SDS011;51427;-27.442;153.014;2023-02-01T11:36:18;4.35;;;3.70;;
64915;SDS011;51427;-27.442;153.014;2023-02-01T11:38:53;8.48;;;4.57;;
64915;SDS011;51427;-27.442;153.014;2023-02-01T11:41:23;5.53;;;4.13;;
64915;SDS011;51427;-27.442;153.014;2023-02-01T11:43:55;8.35;;;4.28;;
64915;SDS011;51427;-27.442;153.014;2023-02-01T11:46:39;5.97;;;3.95;;
64915;SDS011;51427;-27.442;153.014;2023-02-01T11:49:25;5.63;;;4.18;;
64915;SDS011;51427;-27.442;153.014;2023-02-01T11:51:54;5.65;;;3.95;;
64915;SDS011;51427;-27.442;153.014;2023-02-01T12:02:33;5.57;;;3.47;;
64915;SDS011;51427;-27.442;153.014;2023-02-01T12:04:49;8.95;;;4.03;;
64915;SDS011;51427;-27.442;153.014;2023-02-01T12:07:21;6.65;;;3.58;;
64915;SDS011;51427;-27.442;153.014;2023-02-01T12:09:56;7.10;;;3.75;;
64915;SDS011;51427;-27.442;153.014;2023-02-01T12:12:32;6.35;;;3.60;;
64915;SDS011;51427;-27.442;153.014;2023-02-01T12:20:22;7.43;;;3.80;;
64915;SDS011;51427;-27.442;153.014;2023-02-01T12:30:15;5.78;;;3.28;;
64915;SDS011;51427;-27.442;153.014;2023-02-01T12:35:53;6.65;;;3.45;;
64915;SDS011;51427;-27.442;153.014;2023-02-01T12:43:07;3.78;;;2.97;;
64915;SDS011;51427;-27.442;153.014;2023-02-01T12:45:43;5.82;;;3.10;;
64915;SDS011;51427;-27.442;153.014;2023-02-01T12:50:53;4.60;;;2.97;;
64915;SDS011;51427;-27.442;153.014;2023-02-01T12:53:25;4.53;;;2.97;;
64915;SDS011;51427;-27.442;153.014;2023-02-01T12:55:57;4.53;;;3.15;;
64915;SDS011;51427;-27.442;153.014;2023-02-01T13:08:13;5.15;;;2.78;;
64915;SDS011;51427;-27.442;153.014;2023-02-01T13:10:45;5.15;;;3.03;;
64915;SDS011;51427;-27.442;153.014;2023-02-01T13:16:01;3.58;;;2.60;;
64915;SDS011;51427;-27.442;153.014;2023-02-01T13:18:36;4.05;;;2.65;;
64915;SDS011;51427;-27.442;153.014;2023-02-01T13:21:04;4.80;;;2.45;;
64915;SDS011;51427;-27.442;153.014;2023-02-01T13:23:40;4.93;;;2.60;;
64915;SDS011;51427;-27.442;153.014;2023-02-01T13:26:06;4.10;;;2.08;;
64915;SDS011;51427;-27.442;153.014;2023-02-01T13:33:52;4.07;;;2.20;;
64915;SDS011;51427;-27.442;153.014;2023-02-01T13:36:26;3.65;;;2.30;;
64915;SDS011;51427;-27.442;153.014;2023-02-01T13:44:11;3.17;;;1.80;;
64915;SDS011;51427;-27.442;153.014;2023-02-01T13:46:43;3.40;;;2.03;;
64915;SDS011;51427;-27.442;153.014;2023-02-01T13:49:26;4.13;;;2.22;;
64915;SDS011;51427;-27.442;153.014;2023-02-01T13:51:55;6.60;;;2.28;;
64915;SDS011;51427;-27.442;153.014;2023-02-01T13:54:36;3.58;;;1.83;;
64915;SDS011;51427;-27.442;153.014;2023-02-01T13:57:05;4.43;;;1.88;;
64915;SDS011;51427;-27.442;153.014;2023-02-01T14:04:51;5.53;;;1.70;;
64915;SDS011;51427;-27.442;153.014;2023-02-01T14:09:44;2.08;;;1.75;;
64915;SDS011;51427;-27.442;153.014;2023-02-01T14:21:55;3.10;;;1.63;;
64915;SDS011;51427;-27.442;153.014;2023-02-01T14:24:30;3.80;;;1.92;;
64915;SDS011;51427;-27.442;153.014;2023-02-01T14:26:58;5.53;;;1.90;;
64915;SDS011;51427;-27.442;153.014;2023-02-01T14:29:37;2.35;;;1.58;;
64915;SDS011;51427;-27.442;153.014;2023-02-01T14:37:32;5.43;;;1.95;;
64915;SDS011;51427;-27.442;153.014;2023-02-01T14:39:58;3.60;;;1.73;;
64915;SDS011;51427;-27.442;153.014;2023-02-01T14:52:41;4.03;;;1.60;;
64915;SDS011;51427;-27.442;153.014;2023-02-01T14:55:11;4.30;;;1.63;;
64915;SDS011;51427;-27.442;153.014;2023-02-01T14:57:39;3.25;;;1.77;;
64915;SDS011;51427;-27.442;153.014;2023-02-01T15:00:19;4.20;;;1.55;;
64915;SDS011;51427;-27.442;153.014;2023-02-01T15:02:47;5.20;;;1.80;;
64915;SDS011;51427;-27.442;153.014;2023-02-01T15:07:51;3.35;;;1.65;;
64915;SDS011;51427;-27.442;153.014;2023-02-01T15:10:17;3.53;;;1.52;;
64915;SDS011;51427;-27.442;153.014;2023-02-01T15:12:45;4.85;;;1.92;;
64915;SDS011;51427;-27.442;153.014;2023-02-01T15:17:40;4.30;;;2.25;;
64915;SDS011;51427;-27.442;153.014;2023-02-01T15:20:14;6.30;;;2.15;;
64915;SDS011;51427;-27.442;153.014;2023-02-01T15:22:41;4.90;;;2.30;;
64915;SDS011;51427;-27.442;153.014;2023-02-01T15:25:18;4.22;;;2.00;;
64915;SDS011;51427;-27.442;153.014;2023-02-01T15:27:45;4.55;;;2.17;;
64915;SDS011;51427;-27.442;153.014;2023-02-01T15:32:38;5.50;;;2.00;;
64915;SDS011;51427;-27.442;153.014;2023-02-01T15:35:05;3.47;;;1.52;;
64915;SDS011;51427;-27.442;153.014;2023-02-01T15:37:51;2.53;;;1.83;;
64915;SDS011;51427;-27.442;153.014;2023-02-01T15:40:19;4.82;;;1.90;;
64915;SDS011;51427;-27.442;153.014;2023-02-01T15:42:57;3.58;;;2.03;;
64915;SDS011;51427;-27.442;153.014;2023-02-01T15:45:28;4.45;;;2.08;;
64915;SDS011;51427;-27.442;153.014;2023-02-01T15:47:56;7.88;;;1.98;;
64915;SDS011;51427;-27.442;153.014;2023-02-01T15:50:23;3.70;;;2.13;;
64915;SDS011;51427;-27.442;153.014;2023-02-01T15:52:50;4.50;;;2.15;;
64915;SDS011;51427;-27.442;153.014;2023-02-01T15:55:18;4.68;;;2.13;;
64915;SDS011;51427;-27.442;153.014;2023-02-01T15:57:46;4.28;;;2.30;;
64915;SDS011;51427;-27.442;153.014;2023-02-01T16:00:30;6.70;;;2.60;;
64915;SDS011;51427;-27.442;153.014;2023-02-01T16:03:05;3.90;;;2.05;;
64915;SDS011;51427;-27.442;153.014;2023-02-01T16:05:39;4.25;;;2.17;;
64915;SDS011;51427;-27.442;153.014;2023-02-01T16:08:22;6.95;;;2.22;;
64915;SDS011;51427;-27.442;153.014;2023-02-01T16:10:50;6.57;;;2.13;;
64915;SDS011;51427;-27.442;153.014;2023-02-01T16:13:17;3.63;;;2.15;;
64915;SDS011;51427;-27.442;153.014;2023-02-01T16:15:45;2.92;;;1.85;;
64915;SDS011;51427;-27.442;153.014;2023-02-01T16:18:13;5.15;;;2.08;;
64915;SDS011;51427;-27.442;153.014;2023-02-01T16:20:40;3.20;;;1.98;;
64915;SDS011;51427;-27.442;153.014;2023-02-01T16:23:07;3.90;;;2.08;;
64915;SDS011;51427;-27.442;153.014;2023-02-01T16:25:34;4.50;;;2.10;;
64915;SDS011;51427;-27.442;153.014;2023-02-01T16:28:01;6.22;;;2.58;;
64915;SDS011;51427;-27.442;153.014;2023-02-01T16:32:53;3.70;;;1.80;;
64915;SDS011;51427;-27.442;153.014;2023-02-01T16:35:32;5.28;;;1.90;;
64915;SDS011;51427;-27.442;153.014;2023-02-01T16:38:02;5.18;;;2.13;;
64915;SDS011;51427;-27.442;153.014;2023-02-01T16:40:28;5.13;;;2.10;;
64915;SDS011;51427;-27.442;153.014;2023-02-01T16:45:20;6.07;;;2.53;;
64915;SDS011;51427;-27.442;153.014;2023-02-01T16:47:48;4.90;;;2.35;;
64915;SDS011;51427;-27.442;153.014;2023-02-01T16:50:24;3.47;;;2.20;;
64915;SDS011;51427;-27.442;153.014;2023-02-01T16:52:51;2.83;;;1.92;;
64915;SDS011;51427;-27.442;153.014;2023-02-01T16:55:19;2.75;;;2.00;;
64915;SDS011;51427;-27.442;153.014;2023-02-01T16:57:47;3.83;;;2.33;;
64915;SDS011;51427;-27.442;153.014;2023-02-01T17:00:14;3.05;;;2.10;;
64915;SDS011;51427;-27.442;153.014;2023-02-01T17:02:45;7.53;;;2.25;;
64915;SDS011;51427;-27.442;153.014;2023-02-01T17:07:38;4.72;;;2.03;;
64915;SDS011;51427;-27.442;153.014;2023-02-01T17:10:05;6.60;;;2.50;;
64915;SDS011;51427;-27.442;153.014;2023-02-01T17:12:32;6.03;;;2.00;;
64915;SDS011;51427;-27.442;153.014;2023-02-01T17:14:59;4.13;;;2.25;;
64915;SDS011;51427;-27.442;153.014;2023-02-01T17:17:33;3.53;;;1.88;;
64915;SDS011;51427;-27.442;153.014;2023-02-01T17:19:59;4.78;;;1.85;;